Time;durP1;ratioP1;P1;durP2;ratioP2;P2;SDS_P1;SDS_P2;PMS_P1;PMS_P2;Temp;Humidity;BMP_temperature;BMP_pressure;BME280_temperature;BME280_humidity;BME280_pressure;Samples;Min_cycle;Max_cycle;Signal;HPM_P1;HPM_P2
2021/07/14 00:00:20;;;;;;;8.15;7.45;;;;;;;28.99;53.41;99809.49;1748253;78;21016;-72
2021/07/14 00:02:48;;;;;;;8.78;7.90;;;;;;;28.98;53.38;99810.59;1766852;78;22225;-72
2021/07/14 00:05:16;;;;;;;8.78;8.08;;;;;;;28.99;53.35;99808.13;1769349;78;21016;-75
2021/07/14 00:07:43;;;;;;;8.80;7.95;;;;;;;28.99;53.29;99811.39;1754029;78;22073;-75
2021/07/14 00:10:17;;;;;;;8.43;7.72;;;;;;;28.97;53.34;99799.93;1760848;78;21045;-75
2021/07/14 00:13:11;;;;;;;8.20;7.40;;;;;;;28.96;53.33;99801.05;1768807;78;21104;-75
2021/07/14 00:23:21;;;;;;;8.43;7.67;;;;;;;28.93;53.29;99807.08;1776037;80;21004;-76
2021/07/14 00:25:49;;;;;;;8.93;8.23;;;;;;;28.91;53.23;99807.36;1781184;79;21076;-76
2021/07/14 00:28:16;;;;;;;8.65;7.95;;;;;;;28.90;53.19;99804.38;1779080;80;21126;-76
2021/07/14 00:30:49;;;;;;;8.65;7.85;;;;;;;28.90;53.03;99804.38;1779968;79;21094;-75
2021/07/14 00:33:11;;;;;;;8.70;8.00;;;;;;;28.90;53.14;99803.02;1750498;80;21077;-76
2021/07/14 00:35:37;;;;;;;10.05;8.25;;;;;;;28.90;53.20;99809.05;1765396;80;21034;-76
2021/07/14 00:38:05;;;;;;;11.88;8.73;;;;;;;28.89;53.30;99808.77;1759923;79;21085;-77
2021/07/14 00:40:32;;;;;;;9.38;8.25;;;;;;;28.89;53.28;99811.50;1745682;80;21195;-76
2021/07/14 00:43:00;;;;;;;9.18;8.20;;;;;;;28.87;53.28;99805.51;1748730;80;21016;-77
2021/07/14 00:45:26;;;;;;;8.50;7.80;;;;;;;28.87;53.31;99807.69;1766864;80;21019;-77
2021/07/14 00:47:57;;;;;;;8.30;7.50;;;;;;;28.87;53.35;99817.25;1750567;80;21440;-75
2021/07/14 00:50:23;;;;;;;8.73;8.03;;;;;;;28.87;53.28;99819.17;1768732;80;22014;-75
2021/07/14 00:52:49;;;;;;;8.78;7.83;;;;;;;28.86;53.25;99814.80;1760558;80;21109;-76
2021/07/14 00:55:16;;;;;;;8.53;7.83;;;;;;;28.86;53.21;99818.90;1763503;80;21596;-76
2021/07/14 00:57:42;;;;;;;9.15;8.30;;;;;;;28.86;53.16;99807.44;1751549;80;21061;-76
2021/07/14 01:00:10;;;;;;;9.63;8.10;;;;;;;28.87;53.13;99809.61;1755343;80;20991;-76
2021/07/14 01:02:37;;;;;;;8.20;7.37;;;;;;;28.86;53.28;99813.43;1772144;80;21092;-74
2021/07/14 01:05:22;;;;;;;9.40;8.50;;;;;;;28.87;53.31;99808.24;1748522;80;21647;-71
2021/07/14 01:08:21;;;;;;;8.88;8.00;;;;;;;28.87;53.23;99809.05;1756570;80;20990;-71
2021/07/14 01:10:58;;;;;;;8.98;7.83;;;;;;;28.87;53.22;99810.98;1758848;80;21104;-74
2021/07/14 01:13:35;;;;;;;13.20;11.38;;;;;;;28.84;53.29;99812.38;1740251;81;20995;-73
2021/07/14 01:16:04;;;;;;;10.45;9.45;;;;;;;28.83;53.47;99810.73;1748091;81;21018;-74
2021/07/14 01:19:16;;;;;;;11.25;10.15;;;;;;;28.82;53.54;99807.19;1744128;81;21039;-74
2021/07/14 01:21:44;;;;;;;9.75;8.80;;;;;;;28.82;53.49;99807.19;1753971;80;22048;-74
2021/07/14 01:24:47;;;;;;;9.83;8.83;;;;;;;28.79;53.59;99804.22;1740270;81;21064;-74
2021/07/14 01:27:15;;;;;;;10.67;9.57;;;;;;;28.78;53.62;99814.88;1669942;85;21576;-73
2021/07/14 01:29:54;;;;;;;9.83;8.93;;;;;;;28.76;53.61;99812.98;1679635;85;21081;-73
2021/07/14 01:32:23;;;;;;;9.68;8.68;;;;;;;28.73;53.70;99808.10;1713584;81;23295;-72
2021/07/14 01:34:54;;;;;;;9.80;8.88;;;;;;;28.73;53.75;99808.10;1764677;81;21580;-73
2021/07/14 01:37:22;;;;;;;11.28;8.65;;;;;;;28.73;53.72;99804.00;1746072;81;21109;-73
2021/07/14 01:39:53;;;;;;;11.20;8.80;;;;;;;28.72;53.77;99802.36;1752571;81;21062;-74
2021/07/14 01:42:25;;;;;;;12.23;9.10;;;;;;;28.71;53.73;99803.48;1760594;80;21038;-74
2021/07/14 01:44:54;;;;;;;8.83;7.92;;;;;;;28.71;53.76;99806.21;1758386;81;25648;-72
2021/07/14 01:47:21;;;;;;;9.60;8.68;;;;;;;28.70;53.87;99805.93;1757425;80;21012;-73
2021/07/14 01:49:48;;;;;;;11.63;9.25;;;;;;;28.69;53.80;99811.15;1745720;81;21541;-75
2021/07/14 01:52:17;;;;;;;11.00;8.80;;;;;;;28.62;53.84;99802.70;1741991;81;21058;-74
2021/07/14 01:54:44;;;;;;;9.88;8.98;;;;;;;28.68;53.91;99807.58;1736360;81;21050;-74
2021/07/14 01:57:11;;;;;;;9.95;8.35;;;;;;;28.68;53.91;99814.41;1746437;81;21144;-74
2021/07/14 01:59:40;;;;;;;9.58;8.58;;;;;;;28.68;53.91;99810.87;1749314;79;21078;-73
2021/07/14 02:02:08;;;;;;;9.95;8.93;;;;;;;28.69;53.91;99814.69;1751200;81;21062;-74
2021/07/14 02:04:35;;;;;;;8.75;8.03;;;;;;;28.68;53.95;99810.31;1768313;81;21003;-73
2021/07/14 02:07:07;;;;;;;11.43;8.83;;;;;;;28.68;53.92;99811.67;1716613;81;21501;-73
2021/07/14 02:09:36;;;;;;;9.73;8.80;;;;;;;28.60;53.95;99802.73;1749988;81;21338;-74
2021/07/14 02:12:07;;;;;;;11.20;9.08;;;;;;;28.66;53.97;99815.25;1761870;79;21001;-74
2021/07/14 02:14:45;;;;;;;10.25;8.50;;;;;;;28.66;53.92;99813.88;1767469;78;21100;-71
2021/07/14 02:17:19;;;;;;;9.58;8.73;;;;;;;28.66;54.01;99812.52;1760084;78;21116;-71
2021/07/14 02:19:54;;;;;;;11.12;9.35;;;;;;;28.67;54.01;99816.09;1755750;79;21052;-73
2021/07/14 02:22:20;;;;;;;10.75;9.70;;;;;;;28.66;53.99;99817.98;1758306;78;21138;-72
2021/07/14 02:24:46;;;;;;;9.98;9.00;;;;;;;28.66;53.99;99822.08;1762704;79;21087;-71
2021/07/14 02:27:13;;;;;;;11.10;9.65;;;;;;;28.66;53.94;99824.01;1765115;80;21037;-73
2021/07/14 02:29:42;;;;;;;11.45;10.38;;;;;;;28.65;53.96;99820.47;1772279;79;21024;-73
2021/07/14 02:32:08;;;;;;;10.75;9.73;;;;;;;28.66;53.96;99819.91;1768384;78;21085;-73
2021/07/14 02:34:34;;;;;;;11.53;10.05;;;;;;;28.66;53.96;99822.64;1742771;80;21229;-71
2021/07/14 02:37:05;;;;;;;12.80;10.55;;;;;;;28.65;53.96;99821.84;1749581;80;21534;-72
2021/07/14 02:39:33;;;;;;;16.97;10.80;;;;;;;28.65;54.02;99820.47;1758983;78;21030;-72
2021/07/14 02:42:10;;;;;;;12.95;10.55;;;;;;;28.65;54.03;99823.20;1783316;79;21779;-73
2021/07/14 02:44:39;;;;;;;11.70;10.45;;;;;;;28.65;54.11;99821.84;1756697;81;21026;-72
2021/07/14 02:47:07;;;;;;;12.10;10.88;;;;;;;28.65;54.14;99825.94;1767819;80;21134;-75
2021/07/14 02:49:39;;;;;;;12.28;10.53;;;;;;;28.66;54.13;99830.84;1759429;80;21076;-73
2021/07/14 02:52:10;;;;;;;11.33;9.78;;;;;;;28.66;54.16;99831.65;1777862;80;21148;-75
2021/07/14 02:54:39;;;;;;;11.43;10.03;;;;;;;28.66;54.13;99839.84;1770965;80;21021;-74
2021/07/14 02:57:08;;;;;;;13.08;10.78;;;;;;;28.67;54.16;99840.13;1757012;80;21021;-72
2021/07/14 02:59:38;;;;;;;11.45;10.35;;;;;;;28.68;54.17;99843.11;1769142;81;21305;-73
2021/07/14 03:02:04;;;;;;;15.00;11.28;;;;;;;28.69;54.20;99846.13;1771148;80;21039;-74
2021/07/14 03:04:39;;;;;;;10.78;9.73;;;;;;;28.68;54.25;99840.94;1780974;79;21288;-74
2021/07/14 03:07:09;;;;;;;11.15;9.93;;;;;;;28.69;54.32;99844.76;1741563;81;21056;-74
2021/07/14 03:09:41;;;;;;;10.95;9.83;;;;;;;28.69;54.47;99841.21;1752706;80;21710;-75
2021/07/14 03:12:15;;;;;;;10.63;9.55;;;;;;;28.68;54.63;99849.94;1741720;79;21081;-74
2021/07/14 03:14:45;;;;;;;11.57;10.35;;;;;;;28.68;54.72;99847.20;1778370;80;21017;-76
2021/07/14 03:17:14;;;;;;;13.50;10.82;;;;;;;28.69;54.67;99848.05;1770338;79;21037;-74
2021/07/14 03:19:43;;;;;;;12.47;10.30;;;;;;;28.69;54.59;99853.52;1753620;79;21012;-74
2021/07/14 03:22:09;;;;;;;10.63;9.58;;;;;;;28.69;54.71;99851.59;1776748;79;21028;-72
2021/07/14 03:24:36;;;;;;;12.65;10.10;;;;;;;28.69;54.76;99848.86;1790371;79;21543;-73
2021/07/14 03:28:20;;;;;;;12.68;10.48;;;;;;;28.75;54.80;99849.07;1858445;76;23163;-73
2021/07/14 03:30:48;;;;;;;11.88;10.58;;;;;;;28.69;54.86;99843.95;1778664;79;20954;-74
2021/07/14 03:33:15;;;;;;;13.45;10.15;;;;;;;28.70;54.97;99850.47;1812100;77;22157;-71
2021/07/14 03:35:43;;;;;;;12.00;9.68;;;;;;;28.72;54.94;99853.73;1816024;77;21026;-74
2021/07/14 03:38:11;;;;;;;10.93;9.90;;;;;;;28.72;54.94;99850.19;1772656;79;20942;-73
2021/07/14 03:40:44;;;;;;;11.03;10.00;;;;;;;28.72;55.01;99851.56;1797943;77;21098;-73
2021/07/14 03:43:08;;;;;;;11.83;9.63;;;;;;;28.72;55.11;99851.00;1802147;77;20925;-72
2021/07/14 03:45:38;;;;;;;11.60;10.13;;;;;;;28.72;55.15;99854.29;1790706;79;20938;-72
2021/07/14 03:48:06;;;;;;;11.38;9.58;;;;;;;28.72;55.15;99855.09;1829573;77;22056;-72
2021/07/14 03:50:32;;;;;;;11.28;10.10;;;;;;;28.73;55.21;99856.74;1746578;81;21029;-71
2021/07/14 03:52:58;;;;;;;11.12;9.98;;;;;;;28.74;55.21;99853.45;1782526;79;21489;-73
2021/07/14 03:55:27;;;;;;;11.30;10.15;;;;;;;28.75;55.20;99853.17;1792775;79;21046;-71
2021/07/14 03:57:54;;;;;;;11.40;10.13;;;;;;;28.76;55.27;99854.81;1769730;79;21212;-71
2021/07/14 04:00:20;;;;;;;11.63;10.30;;;;;;;28.76;55.31;99853.45;1725483;79;21049;-71
2021/07/14 04:02:47;;;;;;;11.03;9.93;;;;;;;28.77;55.32;99856.99;1760681;80;21017;-72
2021/07/14 04:05:15;;;;;;;11.90;10.78;;;;;;;28.78;55.32;99853.98;1792150;79;21032;-71
2021/07/14 04:07:44;;;;;;;11.48;9.83;;;;;;;28.79;55.34;99861.06;1763604;78;21065;-72
2021/07/14 04:10:11;;;;;;;11.38;10.25;;;;;;;28.81;55.32;99851.21;1781431;78;21770;-72
2021/07/14 04:12:37;;;;;;;14.60;10.48;;;;;;;28.83;55.30;99857.20;1779967;78;21074;-73
2021/07/14 04:15:05;;;;;;;14.07;10.50;;;;;;;28.85;55.26;99856.92;1771960;80;20997;-73
2021/07/14 04:17:32;;;;;;;11.22;10.23;;;;;;;28.86;55.31;99852.55;1776020;78;21623;-74
2021/07/14 04:19:59;;;;;;;14.83;10.70;;;;;;;28.88;55.25;99855.80;1766260;78;21063;-73
2021/07/14 04:22:26;;;;;;;11.55;10.45;;;;;;;28.92;55.06;99862.89;1777106;78;21058;-74
2021/07/14 04:24:52;;;;;;;11.90;10.65;;;;;;;28.94;54.98;99865.59;1785347;79;20975;-74
2021/07/14 04:27:19;;;;;;;13.55;10.08;;;;;;;28.98;54.98;99869.94;1771569;78;21049;-75
2021/07/14 04:29:45;;;;;;;13.62;10.45;;;;;;;29.00;55.02;99867.16;1786931;78;21547;-75
2021/07/14 04:32:12;;;;;;;11.30;10.08;;;;;;;29.04;55.01;99863.87;1792647;78;21033;-74
2021/07/14 04:34:38;;;;;;;13.30;10.98;;;;;;;29.08;54.91;99870.39;1781972;78;21097;-74
2021/07/14 04:37:06;;;;;;;13.15;10.60;;;;;;;29.10;55.05;99866.81;1791381;78;20991;-75
2021/07/14 04:39:34;;;;;;;11.75;10.43;;;;;;;29.14;55.38;99866.53;1786943;79;21482;-73
2021/07/14 04:42:00;;;;;;;12.73;10.75;;;;;;;29.17;55.15;99865.41;1762613;79;21027;-74
2021/07/14 04:44:36;;;;;;;13.70;10.55;;;;;;;29.20;55.41;99866.73;1784922;79;21002;-74
2021/07/14 04:46:59;;;;;;;14.15;11.73;;;;;;;29.25;55.42;99872.16;1777917;79;21160;-73
2021/07/14 04:49:25;;;;;;;13.48;11.75;;;;;;;29.31;55.33;99866.09;1784257;79;21069;-74
2021/07/14 04:51:53;;;;;;;19.00;11.38;;;;;;;29.35;55.42;99869.87;1775584;78;21542;-71
2021/07/14 04:54:20;;;;;;;13.65;11.05;;;;;;;29.39;54.76;99873.09;1764884;80;21010;-71
2021/07/14 04:56:49;;;;;;;17.67;11.50;;;;;;;29.42;55.11;99870.34;1775897;80;21011;-71
2021/07/14 04:59:17;;;;;;;14.93;11.28;;;;;;;29.44;55.16;99874.14;1773104;79;21148;-72
2021/07/14 05:01:43;;;;;;;12.53;11.22;;;;;;;29.45;55.12;99868.38;1775873;79;21105;-72
2021/07/14 05:04:12;;;;;;;15.78;11.20;;;;;;;29.47;54.85;99873.01;1789223;79;21025;-72
2021/07/14 05:06:39;;;;;;;13.48;11.80;;;;;;;29.48;54.50;99876.58;1776389;79;21072;-73
2021/07/14 05:09:06;;;;;;;14.95;11.45;;;;;;;29.48;54.30;99870.55;1763375;79;21037;-73
2021/07/14 05:11:32;;;;;;;12.75;11.33;;;;;;;29.48;54.29;99867.01;1778172;79;21114;-73
2021/07/14 05:13:58;;;;;;;12.15;10.60;;;;;;;29.49;54.29;99876.27;1785485;80;21495;-73
2021/07/14 05:16:25;;;;;;;16.57;11.78;;;;;;;29.50;54.19;99879.28;1794858;79;21050;-74
2021/07/14 05:18:52;;;;;;;14.83;12.00;;;;;;;29.51;54.63;99875.42;1778504;79;21057;-74
2021/07/14 05:21:19;;;;;;;12.03;10.43;;;;;;;29.53;54.62;99874.58;1777829;79;21100;-72
2021/07/14 05:23:45;;;;;;;16.12;11.50;;;;;;;29.55;54.85;99878.39;1770576;79;21802;-73
2021/07/14 05:26:15;;;;;;;13.43;11.10;;;;;;;29.56;55.05;99875.38;1777167;80;21092;-72
2021/07/14 05:28:41;;;;;;;14.87;11.85;;;;;;;29.58;54.97;99880.56;1776016;79;21092;-74
2021/07/14 05:31:07;;;;;;;12.43;10.88;;;;;;;29.59;54.84;99879.44;1778182;79;21042;-73
2021/07/14 05:33:34;;;;;;;15.20;11.73;;;;;;;29.60;54.98;99875.05;1774670;79;21096;-74
2021/07/14 05:36:00;;;;;;;11.48;10.28;;;;;;;29.62;54.98;99868.48;1784799;80;21079;-73
2021/07/14 05:38:28;;;;;;;12.18;10.90;;;;;;;29.65;55.25;99875.56;1791485;79;22109;-73
2021/07/14 05:40:55;;;;;;;11.68;9.90;;;;;;;29.66;56.03;99875.81;1783396;79;21017;-73
2021/07/14 05:43:21;;;;;;;11.43;10.38;;;;;;;29.69;56.17;99878.50;1777986;79;21576;-73
2021/07/14 05:45:48;;;;;;;11.73;9.15;;;;;;;29.71;56.36;99877.13;1769403;79;21021;-72
2021/07/14 05:48:15;;;;;;;10.13;9.15;;;;;;;29.73;56.79;99880.41;1788968;79;21102;-74
2021/07/14 05:50:43;;;;;;;11.03;9.73;;;;;;;29.73;56.55;99877.67;1779774;80;21085;-74
2021/07/14 05:53:09;;;;;;;10.38;9.40;;;;;;;29.76;56.48;99877.63;1770085;80;21608;-72
2021/07/14 05:55:36;;;;;;;10.20;8.85;;;;;;;29.76;56.71;99874.34;1780368;78;21033;-74
2021/07/14 05:58:03;;;;;;;10.18;8.85;;;;;;;29.78;56.38;99873.48;1753716;80;21065;-74
2021/07/14 06:00:29;;;;;;;11.18;9.38;;;;;;;29.80;56.41;99878.67;1775153;80;21126;-73
2021/07/14 06:02:57;;;;;;;11.88;9.18;;;;;;;29.81;56.30;99877.58;1769670;80;21045;-71
2021/07/14 06:05:24;;;;;;;9.35;8.45;;;;;;;29.83;55.53;99871.25;1784812;80;21497;-73
2021/07/14 06:07:51;;;;;;;9.78;8.70;;;;;;;29.84;55.02;99866.03;1777686;79;21021;-72
2021/07/14 06:10:17;;;;;;;10.00;9.05;;;;;;;29.85;54.23;99872.34;1775006;79;21026;-77
2021/07/14 06:12:44;;;;;;;10.30;9.28;;;;;;;29.84;52.84;99867.95;1785265;80;21056;-75
2021/07/14 06:15:11;;;;;;;11.75;8.80;;;;;;;29.86;51.79;99874.76;1782684;80;21069;-73
2021/07/14 06:17:37;;;;;;;10.45;9.23;;;;;;;29.87;50.95;99877.77;1791631;79;21117;-73
2021/07/14 06:20:06;;;;;;;10.53;9.03;;;;;;;29.86;50.29;99873.39;1789881;79;21068;-74
2021/07/14 06:22:33;;;;;;;11.48;9.00;;;;;;;29.87;49.71;99875.03;1771469;80;21058;-74
2021/07/14 06:25:00;;;;;;;10.80;8.60;;;;;;;29.86;49.30;99869.28;1783269;80;21140;-73
2021/07/14 06:27:27;;;;;;;12.30;9.05;;;;;;;29.85;48.84;99860.83;1752052;80;21064;-76
2021/07/14 06:29:54;;;;;;;9.38;8.25;;;;;;;29.86;48.31;99872.02;1808215;78;21015;-74
2021/07/14 06:32:20;;;;;;;9.93;8.93;;;;;;;29.84;47.92;99867.39;1800092;78;21084;-75
2021/07/14 06:34:47;;;;;;;11.05;8.53;;;;;;;29.86;47.73;99867.11;1774851;80;21536;-76
2021/07/14 06:37:13;;;;;;;10.78;9.13;;;;;;;29.85;47.35;99870.97;1798354;78;21081;-71
2021/07/14 06:39:39;;;;;;;10.43;9.38;;;;;;;29.84;47.01;99869.33;1793578;78;21096;-73
2021/07/14 06:42:06;;;;;;;9.88;8.85;;;;;;;29.85;46.85;99868.23;1780861;79;21026;-73
2021/07/14 06:44:36;;;;;;;10.88;8.90;;;;;;;29.84;46.73;99876.98;1776045;80;21049;-75
2021/07/14 06:47:01;;;;;;;9.78;8.38;;;;;;;29.84;46.37;99865.22;1772193;79;21148;-70
2021/07/14 06:49:28;;;;;;;11.25;9.13;;;;;;;29.85;46.03;99870.97;1770459;79;21314;-70
2021/07/14 06:51:54;;;;;;;11.10;8.60;;;;;;;29.84;45.77;99871.50;1775962;80;21089;-76
2021/07/14 06:54:20;;;;;;;10.03;9.05;;;;;;;29.83;45.60;99864.97;1777888;80;21628;-76
2021/07/14 06:56:47;;;;;;;14.13;12.58;;;;;;;29.84;46.37;99869.33;1775468;80;21004;-72
2021/07/14 06:59:13;;;;;;;18.75;13.65;;;;;;;29.85;47.24;99872.34;1777981;80;21110;-74
2021/07/14 07:01:40;;;;;;;14.07;10.90;;;;;;;29.86;46.46;99869.28;1762628;80;23284;-73
2021/07/14 07:04:06;;;;;;;16.23;10.55;;;;;;;29.86;45.90;99862.44;1772192;79;21544;-70
2021/07/14 07:06:32;;;;;;;11.35;10.20;;;;;;;29.86;45.41;99865.17;1790185;80;21040;-71
2021/07/14 07:09:00;;;;;;;14.33;11.10;;;;;;;29.85;45.25;99860.83;1786129;79;21025;-76
2021/07/14 07:11:26;;;;;;;17.55;11.85;;;;;;;29.83;45.25;99867.16;1791305;79;21508;-75
2021/07/14 07:13:53;;;;;;;17.00;11.90;;;;;;;29.83;45.20;99871.25;1784642;79;21055;-75
2021/07/14 07:16:19;;;;;;;17.07;11.95;;;;;;;29.83;45.32;99867.71;1792202;80;21013;-74
2021/07/14 07:18:47;;;;;;;14.03;10.43;;;;;;;29.83;45.76;99869.08;1787597;79;21473;-70
2021/07/14 07:21:13;;;;;;;13.45;10.80;;;;;;;29.83;46.35;99864.41;1762332;80;21127;-75
2021/07/14 07:23:40;;;;;;;13.13;10.80;;;;;;;29.84;47.21;99866.59;1777618;80;21025;-74
2021/07/14 07:26:06;;;;;;;16.82;11.90;;;;;;;29.85;47.68;99868.23;1770598;80;21101;-71
2021/07/14 07:28:39;;;;;;;17.15;10.72;;;;;;;29.86;48.31;99869.28;1772913;80;21005;-72
2021/07/14 07:31:01;;;;;;;15.05;11.60;;;;;;;29.87;48.80;99862.71;1766354;79;21064;-75
2021/07/14 07:33:28;;;;;;;14.50;10.85;;;;;;;29.89;49.44;99865.97;1724587;81;21041;-75
2021/07/14 07:35:55;;;;;;;17.67;11.43;;;;;;;29.90;49.67;99864.04;1742774;81;21139;-73
2021/07/14 07:38:23;;;;;;;12.90;10.93;;;;;;;29.92;49.97;99868.13;1746145;81;21056;-74
2021/07/14 07:40:51;;;;;;;14.25;10.82;;;;;;;29.91;49.76;99866.48;1750283;81;20989;-73
2021/07/14 07:43:18;;;;;;;13.25;10.72;;;;;;;29.92;49.80;99868.13;1735980;81;21549;-72
2021/07/14 07:45:44;;;;;;;14.83;11.33;;;;;;;29.93;49.92;99865.64;1746348;79;21046;-73
2021/07/14 07:48:11;;;;;;;12.35;10.45;;;;;;;29.95;50.01;99863.98;1743744;79;21030;-76
2021/07/14 07:50:38;;;;;;;13.45;10.95;;;;;;;29.97;50.15;99866.67;1749283;80;21947;-72
2021/07/14 07:53:04;;;;;;;12.37;10.60;;;;;;;29.98;50.12;99860.67;1738096;81;21065;-73
2021/07/14 07:55:31;;;;;;;11.38;9.48;;;;;;;29.99;49.56;99860.34;1735726;81;21993;-73
2021/07/14 07:57:59;;;;;;;11.75;10.55;;;;;;;29.99;49.19;99852.12;1755571;79;21255;-80
2021/07/14 08:00:25;;;;;;;11.78;10.32;;;;;;;30.01;48.47;99846.93;1759445;79;21049;-80
2021/07/14 08:02:52;;;;;;;13.32;10.50;;;;;;;30.00;47.75;99847.48;1742778;79;21605;-79
2021/07/14 08:05:19;;;;;;;11.73;9.88;;;;;;;30.02;47.37;99847.17;1758313;79;21036;-78
2021/07/14 08:07:47;;;;;;;11.97;10.25;;;;;;;30.03;46.81;99843.34;1752892;79;21066;-83
2021/07/14 08:10:13;;;;;;;10.25;9.35;;;;;;;29.95;46.33;99834.66;1746845;79;21327;-77
2021/07/14 08:12:41;;;;;;;12.03;9.95;;;;;;;30.03;46.00;99848.81;1742181;81;21024;-78
2021/07/14 08:15:10;;;;;;;11.33;10.13;;;;;;;30.03;45.75;99846.88;1736093;81;21643;-78
2021/07/14 08:17:38;;;;;;;10.58;9.48;;;;;;;30.04;45.75;99845.79;1745325;81;21104;-76
2021/07/14 08:20:07;;;;;;;13.18;9.73;;;;;;;29.99;45.70;99836.27;1739941;81;21084;-77
2021/07/14 08:22:35;;;;;;;10.53;9.40;;;;;;;30.05;45.57;99843.30;1740968;81;21523;-77
2021/07/14 08:25:07;;;;;;;11.05;9.65;;;;;;;30.07;45.61;99840.27;1739345;81;21049;-77
2021/07/14 08:27:34;;;;;;;11.17;9.70;;;;;;;30.07;45.24;99836.96;1736447;81;21494;-79
2021/07/14 08:30:06;;;;;;;10.20;9.20;;;;;;;30.08;45.30;99839.17;1744327;81;21882;-77
2021/07/14 08:32:33;;;;;;;11.87;10.00;;;;;;;30.08;45.71;99840.53;1737819;81;21069;-80
2021/07/14 08:35:00;;;;;;;10.88;9.80;;;;;;;30.09;46.00;99845.70;1740802;81;21772;-78
2021/07/14 08:37:26;;;;;;;12.85;10.15;;;;;;;30.10;46.33;99845.97;1748041;81;21058;-76
2021/07/14 08:39:55;;;;;;;11.28;10.18;;;;;;;30.11;46.31;99845.41;1747059;80;21164;-77
2021/07/14 08:42:22;;;;;;;10.65;9.55;;;;;;;30.11;47.03;99846.21;1746131;81;21029;-79
2021/07/14 08:44:49;;;;;;;10.65;9.60;;;;;;;30.12;46.94;99845.11;1745744;81;21190;-79
2021/07/14 08:47:18;;;;;;;17.17;10.75;;;;;;;30.13;47.09;99841.81;1744715;79;21664;-81
2021/07/14 08:49:50;;;;;;;18.00;11.55;;;;;;;30.15;47.08;99838.22;1743846;81;21501;-81
2021/07/14 08:52:17;;;;;;;16.42;12.73;;;;;;;30.17;47.37;99837.37;1746647;81;21184;-78
2021/07/14 08:54:45;;;;;;;21.62;12.43;;;;;;;30.18;47.47;99834.34;1747385;79;21041;-81
2021/07/14 08:57:14;;;;;;;20.05;13.15;;;;;;;30.20;47.99;99831.31;1750468;79;21117;-78
2021/07/14 08:59:41;;;;;;;17.37;12.95;;;;;;;30.23;47.84;99832.63;1749843;79;21132;-78
2021/07/14 09:02:08;;;;;;;13.95;10.53;;;;;;;30.25;48.20;99832.61;1752901;81;21639;-68
2021/07/14 09:04:36;;;;;;;22.55;16.07;;;;;;;30.28;47.24;99836.11;1749758;81;22094;-69
2021/07/14 09:07:06;;;;;;;25.10;17.87;;;;;;;30.31;47.51;99840.20;1751336;79;21064;-68
2021/07/14 09:09:35;;;;;;;29.63;18.05;;;;;;;30.30;47.03;99838.00;1760888;79;21091;-68
2021/07/14 09:12:03;;;;;;;24.82;17.85;;;;;;;30.26;45.94;99838.33;1755409;79;21120;-69
2021/07/14 09:14:40;;;;;;;24.60;16.70;;;;;;;30.19;45.07;99826.39;1729535;81;21066;-69
2021/07/14 09:17:22;;;;;;;22.35;15.78;;;;;;;30.13;44.39;99827.59;1759761;79;21202;-70
2021/07/14 09:19:55;;;;;;;22.93;15.58;;;;;;;30.05;43.83;99835.08;1757687;79;21046;-68
2021/07/14 09:22:26;;;;;;;21.62;16.02;;;;;;;29.94;43.06;99826.20;1781436;79;21021;-68
2021/07/14 09:24:58;;;;;;;;;;;;;;;29.86;42.49;99818.63;1748232;81;21368;-68
2021/07/14 09:27:28;;;;;;;20.00;14.07;;;;;;;29.77;42.01;99814.94;1748433;79;20207;-70
2021/07/14 09:30:20;;;;;;;19.75;13.70;;;;;;;29.63;42.50;99823.00;1760403;79;21021;-71
2021/07/14 09:32:55;;;;;;;19.55;13.98;;;;;;;29.58;44.32;99821.16;1756923;79;21069;-72
2021/07/14 09:35:42;;;;;;;19.70;13.93;;;;;;;29.57;45.89;99826.38;1746896;79;21077;-70
2021/07/14 09:38:13;;;;;;;17.75;13.78;;;;;;;29.61;46.38;99826.59;1751265;79;21025;-71
2021/07/14 09:40:42;;;;;;;19.85;13.90;;;;;;;29.66;46.46;99829.27;1756169;79;21032;-71
2021/07/14 09:43:15;;;;;;;18.05;14.03;;;;;;;29.71;46.45;99825.64;1743869;79;21113;-72
2021/07/14 09:45:45;;;;;;;18.95;12.98;;;;;;;29.76;46.59;99826.42;1752886;81;21101;-71
2021/07/14 09:48:19;;;;;;;16.00;13.13;;;;;;;29.82;46.61;99829.91;1739972;81;21057;-70
2021/07/14 09:50:53;;;;;;;16.12;13.10;;;;;;;29.86;46.54;99820.00;1764351;79;21588;-70
2021/07/14 09:53:23;;;;;;;14.07;12.65;;;;;;;29.91;46.65;99815.02;1755416;81;21053;-71
2021/07/14 09:55:53;;;;;;;14.18;12.53;;;;;;;29.97;46.99;99812.47;1754255;79;21165;-69
2021/07/14 09:58:28;;;;;;;14.15;12.18;;;;;;;30.02;46.96;99818.41;1744252;79;21009;-68
2021/07/14 10:01:01;;;;;;;15.05;12.33;;;;;;;30.07;46.52;99821.09;1749607;79;21678;-71
2021/07/14 10:03:37;;;;;;;15.60;11.68;;;;;;;30.11;45.98;99822.12;1747710;79;21569;-70
2021/07/14 10:06:06;;;;;;;12.18;10.93;;;;;;;30.15;45.65;99820.41;1754214;79;21072;-69
2021/07/14 10:08:35;;;;;;;12.40;11.20;;;;;;;30.17;45.54;99810.81;1749161;81;21134;-67
2021/07/14 10:11:19;;;;;;;11.70;10.60;;;;;;;30.22;45.63;99820.06;1752951;79;21033;-69
2021/07/14 10:14:05;;;;;;;14.28;11.00;;;;;;;30.30;45.97;99810.59;1755771;81;27069;-67
2021/07/14 10:16:40;;;;;;;13.60;11.28;;;;;;;30.30;45.97;99810.59;1745300;79;21018;-69
2021/07/14 10:19:10;;;;;;;14.65;10.25;;;;;;;30.34;46.18;99806.17;1748577;80;21039;-67
2021/07/14 10:21:41;;;;;;;12.68;10.55;;;;;;;30.38;46.28;99813.25;1745490;81;21823;-69
2021/07/14 10:24:13;;;;;;;11.20;10.10;;;;;;;30.41;46.32;99809.92;1746003;79;21035;-69
2021/07/14 10:26:44;;;;;;;11.48;10.50;;;;;;;30.45;46.43;99808.77;1746410;79;21658;-68
2021/07/14 10:29:11;;;;;;;11.00;9.90;;;;;;;30.49;46.58;99806.48;1755283;79;21556;-69
2021/07/14 10:31:38;;;;;;;11.93;10.48;;;;;;;30.52;46.67;99804.53;1755262;79;21060;-69
2021/07/14 10:34:06;;;;;;;11.38;10.20;;;;;;;30.58;46.87;99811.55;1756695;79;21206;-70
2021/07/14 10:36:35;;;;;;;11.55;10.55;;;;;;;30.66;46.98;99779.09;1749395;79;21540;-75
2021/07/14 10:39:14;;;;;;;13.78;12.23;;;;;;;30.68;47.17;99781.77;1745880;80;21117;-77
2021/07/14 10:41:41;;;;;;;12.15;10.90;;;;;;;30.69;46.58;99775.73;1756576;79;21018;-75
2021/07/14 10:44:08;;;;;;;12.85;11.08;;;;;;;30.67;45.67;99813.59;1731088;81;21041;-76
2021/07/14 10:46:39;;;;;;;12.90;11.70;;;;;;;30.64;44.19;99816.95;1749631;81;21200;-79
2021/07/14 10:49:07;;;;;;;12.30;10.70;;;;;;;30.58;42.86;99813.48;1763276;79;21633;-75
2021/07/14 10:51:36;;;;;;;12.35;11.10;;;;;;;30.52;41.86;99809.17;1751328;79;21037;-74
2021/07/14 10:54:06;;;;;;;11.40;10.38;;;;;;;30.46;41.09;99820.81;1760239;80;21216;-74
2021/07/14 10:56:42;;;;;;;12.00;10.82;;;;;;;30.42;40.35;99825.80;1737508;80;21029;-76
2021/07/14 10:59:09;;;;;;;12.80;9.95;;;;;;;30.35;39.67;99816.03;1759937;79;22154;-78
2021/07/14 11:01:50;;;;;;;11.18;9.98;;;;;;;30.28;39.05;99812.81;1764134;79;21120;-85
2021/07/14 11:04:33;;;;;;;13.18;9.85;;;;;;;30.21;38.55;99808.30;1765704;79;25087;-77
2021/07/14 11:07:04;;;;;;;9.68;8.63;;;;;;;30.14;38.58;99811.39;1747656;79;21065;-77
2021/07/14 11:09:36;;;;;;;9.77;8.87;;;;;;;30.06;38.71;99810.70;1740185;80;21076;-79
2021/07/14 11:12:11;;;;;;;10.43;9.03;;;;;;;30.01;39.02;99803.11;1767798;79;21482;-74
2021/07/14 11:14:48;;;;;;;9.78;8.75;;;;;;;29.95;39.82;99804.54;1744466;79;21049;-71
2021/07/14 11:17:14;;;;;;;9.13;8.33;;;;;;;29.88;39.76;99801.38;1750391;79;21065;-75
2021/07/14 11:19:54;;;;;;;9.58;8.60;;;;;;;29.85;43.38;99802.52;1745974;81;21033;-75
2021/07/14 11:22:40;;;;;;;10.32;9.05;;;;;;;29.83;47.58;99804.73;1771031;80;21082;-74
2021/07/14 11:25:26;;;;;;;10.28;9.38;;;;;;;29.83;50.13;99800.63;1735218;80;22220;-76
2021/07/14 11:28:02;;;;;;;10.28;9.35;;;;;;;29.86;51.90;99801.39;1763332;79;21041;-73
2021/07/14 11:30:41;;;;;;;10.08;9.13;;;;;;;29.88;53.26;99797.27;1758600;80;21038;-76
2021/07/14 11:33:08;;;;;;;10.78;9.80;;;;;;;29.92;52.78;99796.09;1743759;81;21037;-73
2021/07/14 11:35:44;;;;;;;9.68;8.80;;;;;;;29.94;52.07;99793.34;1747193;80;21005;-76
2021/07/14 11:38:13;;;;;;;9.45;8.55;;;;;;;29.97;51.79;99795.47;1761468;80;21430;-73
2021/07/14 11:40:46;;;;;;;9.98;8.95;;;;;;;29.99;51.58;99794.62;1735047;81;21550;-74